Pueblo Of Acoma, New Mexico
Current Conditions -  °F | °C
As of 2:17 PM on Sunday 23 Nov 2014 (Local Time) from KGNT Reporting Station
Scattered Clouds Scattered Clouds  
Wind Chill: 27°   Ceiling: Unl
Heat Index: 39°   Visibility: 10mi
Dew Point:   Wind: 35mph
Humidity: 19%   Direction: 300°WNW
Pressure: 29.96"   Gusts: 44mph
Location:  35.08°N, 107.6°W
Report Text: KGNT 232117Z AUTO 30030G38KT 10SM SCT080 04/M18 A2996 RMK AO2
Loading
Personal Weather Stations






























Interactive Weather Map New forecast layout! Learn more

10-Day Weather Forecast

Advertisements
Track Severe Weather on mobile